Terminal Aerodrome Forecast
Issued by NWS Shreveport, LA

Current Version | Previous Version | Text Only | Print | Product List | Glossary On
Versions: 1 2 3 4 5 6 7 8 9 10 11 12 13
000
FTUS44 KSHV 252322
TAFELD
TAF
KELD 252322Z 2600/2624 VRB03KT P6SM SCT250
      TEMPO 2609/2613 5SM BR
     FM261500 12004KT P6SM SCT035 SCT250
     FM261700 10005KT P6SM SCT040 SCT060 SCT250=

USA.gov is the U.S. government's official web portal to all federal, state and local government web resources and services.